竜ヶ崎飛行場

2022/06/13

田園の昼休み 稲敷 2022/6/13 mon

お仕事で移動していたら、やたら上空をヘリが飛んでいるので、はーんあそこか・・と、昼休みにちょっと寄ってみた。

RJAA 130300Z 15012KT 9999 FEW030 SCT040 BKN/// 22/14 Q1013 NOSIG RMK 1CU030 3CU040 A2992

竜ヶ崎飛行場が見える田んぼの中に車を止めて、パンをかじりながらラジオを聴く。

20220613_inashiki_00ohlwp

FIN73 EFHK-RJAA OH-LWP A350-941

20220613_inashiki_01ja08va

APJ570 RJCC-RJAA JA08VA A320-214

20220613_inashiki_02ja012g

先ほども見たチェックスターが成田16Rのフライトチェック中

20220613_inashiki_03ja16jj

JJP600 RJFO-RJAA JA16JJ A320-232

20220613_inashiki_04hl7746

AAR102 RKSI-RJAA HL7746 A330-323

20220613_inashiki_05ja012g

16Rのレベルランへのアプローチ

20220613_inashiki_06ja012g

JA012G CS12 C525C CAB

RJAA 130330Z 13013KT 9999 FEW030 BKN040 BKN/// 23/15 Q1013 NOSIG

20220613_inashiki_07b17882

EVA198 RCTP-RJAA B-17882 B787-9

20220613_inashiki_08ja03jj

JJP662 RJFK-RJAA JA03JJ A320-232

20220613_inashiki_09hl7602

KAL280 KLAX-RKSIdvt.RJAA HL7602 B747-4B5FER

20220613_inashiki_10ja785a

ANA8468 KORD-RJAA JA785A B777-381ER

20220613_inashiki_11n450pa

最初はジャイアントと思っていたら・・

20220613_inashiki_12n450pa

FDX79 PANC-RJAA N450PA B747-46NF

この次に JA01HJ が降りたのですが、ゴミにしか映らないので略

20220613_inashiki_13ju1015

MGL501 ZMCK-RJAA JU-1015 B737-8SH

20220613_inashiki_14ja05gr

SJO622 RJOA-RJAA JA05GR B737-8AL

RJAA 130400Z 13014KT 9999 FEW030 SCT040 22/14 Q1013 NOSIG RMK 1CU030 3CU040 A2993

20220613_inashiki_15hl7540

KAL703 RKSI-RJAA HL7540 A330-322

20220613_inashiki_16ja427n

JA427N B427 SNK グラスエリアへの移動

場周訓練していたヘリは東ヘリへ帰り、午後は特に訓練機はなかった模様

さあ、お仕事に戻ります。

 

| | コメント (0)

2021/11/05

昼休 竜ケ崎飛行場 2021/11/5 thu

関東のとあるところに出張してきていて、丁度お昼に近くに来ていた竜ケ崎飛行場のそばで、飛行場を眺めながらお昼休み。

20211105_ryugasaki_00ja34ca

到着して、ヘリを見送っていたら、何か来たー

20211105_ryugasaki_01ja34ca

JA34CA Do228-212 NG CUK

川沿いに本庄の方まで、行ってたみたい。

20211105_ryugasaki_02ja6900

JA6900 B430 AKF

試験中断して一旦、江東に戻ったみたい。

RJAK 050300Z 09003KT 050V190 9999 FEW030 18/06 Q1017 RMK 1CU030 A3003

RJAA 050300Z 34009KT 9999 FEW030 SCT050 19/08 Q1016 NOSIG RMK 1CU030 4SC050 A3002

20211105_ryugasaki_03vna886

HVN301 RJAA-VVTS VN-A886 A350-941

後ろを振り返ると、成田デパーチャーが気になる

20211105_ryugasaki_04ja873a

ANA174 RJAA-KIAH JA873A B777-381ER

20211105_ryugasaki_05ja4069

JA4069 C172P

20211105_ryugasaki_06ja16kz

NCA132 RJAA-KORD JA16KZ B747-8KZF

20211105_ryugasaki_07n454pa

PAC212 RJAA-KLAX N454PA B747-46NF

20211105_ryugasaki_08ja73ne

SKY712 RJCC-RJTT JA73NE JA737-82Y

一方西を向くと、羽田便

20211105_ryugasaki_09ja365l

JA365L G109B

南を向けば、大利根飛行場ダインウインドを飛んでるモグラ

20211105_ryugasaki_10ja4122

JA4122 C172P THK

20211105_ryugasaki_11ja4122

RW08 T/G

20211105_ryugasaki_12ja4122

折り返して、RW26 FP

20211105_ryugasaki_13n606fe

FDX5311 RJAA-WSSS N606FE MD-11F

20211105_ryugasaki_14ja365l

JA365L

RJAK 050400Z VRB02KT 9999 FEW030 19/07 Q1016 RMK 2CU030 A3002

RJAA 050400Z 02007KT 340V040 9999 FEW030 19/08 Q1016 NOSIG RMK 1CU030 A3001

20211105_ryugasaki_15ja4184

JA4184 C172P CUK

さて、お昼休みもお仕舞。短い時間でしたが、十分楽しめました。時間があれば、帰りにも寄りたいな。

 

RJAK 050600Z VRB02KT 9999 FEW060 20/06 Q1016 RMK 2SC060 A3002

RJAA 050600Z 01009KT 340V060 9999 FEW030 19/07 Q1016 BECMG 08005KT RMK 1CU030 A3002

20211105_ryugasaki_20ja6688

JA6688 AS365N2

目の前で、離陸していった。帰り道にも寄ってみました。

20211105_ryugasaki_21ja6900

お昼に見過ごした、朝日のB430さんが再来場。

20211105_ryugasaki_22ja6900

試験飛行なので、滑降路上で、進んだり止まったり。

20211105_ryugasaki_23ja6900

竜ヶ崎と言えば、KDDI無線中継塔

20211105_ryugasaki_24ja10va

APJ579 RJAA-RJCC JA10VA A320-214

20211105_ryugasaki_25ja6900

JA6900 オンファイナル 背後に大利根着陸機

20211105_ryugasaki_26ja6900

まるで、ダンスをしている様

20211105_ryugasaki_27ja6900

20211105_ryugasaki_28ja6900

20211105_ryugasaki_29ja6900

###

 

20211105_ryugasaki_30ja6900

試験は続いています。

20211105_ryugasaki_31ja6900

離陸して、脚上げ。北側に移動してみます。

20211105_ryugasaki_32ja36ca

JA36CA Do228-212 NG CUK この子は、置物?

20211105_ryugasaki_33ja6900

ファイナル ローアプローチ

試験は続いていますが、この辺で、離脱。

 

 

| | コメント (0)

その他のカテゴリー

BI Boading record aircraft Boading record ship FlightTracking lighthouse NAVAIDS NAVY RJNT LOG SKY MASSAGE US NAVY USMC うみ おか そら てつ アクシデント エアロック チーム室屋 ヘリポート 三沢飛行場 上五島空港 下地島空港 下総飛行場 与論空港 与那国空港 中標津空港 中部国際空港 久米島空港 五島福江空港 仙台空港 伊江島空港 但馬空港 佐賀空港 入間飛行場 八尾空港 八戸飛行場 出雲空港 函館空港 利尻空港 北九州空港 北大東空港 十勝飛行場 千歳飛行場 南大東空港 博物館 厚木飛行場 名古屋飛行場 喜界空港 嘉手納飛行場 場外 壱岐空港 多良間空港 大分空港 大村飛行場 大湊飛行場 大阪国際空港 大館能代空港 天草空港 奄美空港 奥尻空港 宇部山口空港 宇都宮飛行場 宮古空港 宮崎空港 富山空港 対馬空港 小松島飛行場 小松飛行場 屋久島空港 山形空港 岐阜飛行場 岡南飛行場 岡山空港 岩国飛行場 帯広空港 広島空港 広島西飛行場 庄内空港 徳之島空港 徳島飛行場 慶良間空港 成田国際空港 新島空港 新潟空港 新田原飛行場 旭川空港 旭川飛行場 明野飛行場 普天間飛行場 木更津飛行場 札幌飛行場 東京国際空港 松山空港 松島飛行場 松本空港 枕崎飛行場 横田飛行場 沖永良部空港 波照間空港 浜松飛行場 海上保安庁 海上自衛隊 海外 熊本空港 百里飛行場 相馬原飛行場 石垣空港 石見空港 礼文空港 神戸空港 神津島空港 福井空港 福岡空港 福島空港 秋田空港 稚内空港 種子島空港 空撮 立川飛行場 竜ヶ崎飛行場 築城飛行場 粟国空港 美保飛行場 能登空港 舞鶴飛行場 航空自衛隊 芦屋飛行場 花巻空港 調布飛行場 警務消防 那覇空港 釧路空港 長崎空港 関西国際空港 陸上自衛隊 隠岐空港 霞ヶ浦飛行場 霞目飛行場 青森空港 静岡空港 静浜飛行場 飛行場跡 飛行船 鹿児島空港 鹿屋飛行場